createdAt,value
2023-01-25T00:01:06.376Z,34.20
2023-01-25T00:03:34.434Z,46.00
2023-01-25T00:06:02.429Z,57.60
2023-01-25T00:08:30.382Z,38.93
2023-01-25T00:10:59.461Z,42.30
2023-01-25T00:13:27.683Z,41.77
2023-01-25T00:15:55.367Z,42.43
2023-01-25T00:18:23.385Z,38.17
2023-01-25T00:20:51.224Z,43.93
2023-01-25T00:23:18.913Z,33.80
2023-01-25T00:25:46.537Z,41.20
2023-01-25T00:28:15.766Z,37.53
2023-01-25T00:31:02.945Z,37.73
2023-01-25T00:33:51.671Z,35.03
2023-01-25T00:36:28.326Z,39.40
2023-01-25T00:38:57.328Z,35.97
2023-01-25T00:41:24.943Z,37.07
2023-01-25T00:43:53.974Z,32.67
2023-01-25T00:46:21.805Z,35.17
2023-01-25T00:48:49.578Z,35.23
2023-01-25T00:51:17.010Z,44.37
2023-01-25T00:53:45.179Z,31.90
2023-01-25T00:56:34.879Z,38.93
2023-01-25T00:59:04.536Z,34.03
2023-01-25T01:01:32.311Z,32.63
2023-01-25T01:03:59.981Z,32.47
2023-01-25T01:06:49.248Z,44.40
2023-01-25T01:09:18.356Z,39.70
2023-01-25T01:11:45.910Z,31.90
2023-01-25T01:14:50.679Z,35.57
2023-01-25T01:18:13.614Z,39.83
2023-01-25T01:21:01.922Z,35.80
2023-01-25T01:23:30.294Z,32.87
2023-01-25T01:26:00.447Z,38.67
2023-01-25T01:28:30.479Z,35.40
2023-01-25T01:31:01.029Z,36.40
2023-01-25T01:33:33.980Z,38.93
2023-01-25T01:36:09.398Z,39.30
2023-01-25T01:38:37.941Z,38.47
2023-01-25T01:41:06.085Z,41.50
2023-01-25T01:43:34.753Z,40.37
2023-01-25T01:46:03.981Z,48.00
2023-01-25T01:48:37.920Z,67.07
2023-01-25T01:51:14.260Z,61.80
2023-01-25T01:53:43.291Z,50.77
2023-01-25T01:56:14.940Z,45.37
2023-01-25T01:58:44.233Z,53.10
2023-01-25T02:01:12.468Z,40.40
2023-01-25T02:03:40.976Z,55.80
2023-01-25T02:06:13.884Z,41.83
2023-01-25T02:08:44.708Z,38.60
2023-01-25T02:11:13.476Z,47.33
2023-01-25T02:13:41.236Z,42.43
2023-01-25T02:16:14.037Z,39.50
2023-01-25T02:18:41.760Z,39.27
2023-01-25T02:21:09.900Z,36.50
2023-01-25T02:23:41.139Z,34.47
2023-01-25T02:26:12.406Z,37.10
2023-01-25T02:28:45.192Z,37.70
2023-01-25T02:31:13.108Z,38.80
2023-01-25T02:33:40.982Z,34.83
2023-01-25T02:36:17.889Z,39.87
2023-01-25T02:38:49.519Z,37.33
2023-01-25T02:41:22.857Z,46.57
2023-01-25T02:43:50.815Z,41.17
2023-01-25T02:46:32.106Z,32.77
2023-01-25T02:49:00.503Z,37.53
2023-01-25T02:51:30.251Z,32.27
2023-01-25T02:53:58.552Z,40.43
2023-01-25T02:56:28.089Z,38.90
2023-01-25T02:58:56.043Z,37.67
2023-01-25T03:01:23.962Z,31.80
2023-01-25T03:03:51.771Z,36.20
2023-01-25T03:06:20.177Z,34.77
2023-01-25T03:08:48.578Z,36.30
2023-01-25T03:11:16.558Z,37.63
2023-01-25T03:13:46.995Z,43.90
2023-01-25T03:16:15.119Z,34.00
2023-01-25T03:18:44.923Z,33.23
2023-01-25T03:21:14.075Z,32.90
2023-01-25T03:23:42.585Z,30.17
2023-01-25T03:26:12.148Z,34.20
2023-01-25T03:28:53.973Z,27.87
2023-01-25T03:31:21.833Z,31.93
2023-01-25T03:33:49.799Z,28.40
2023-01-25T03:36:18.827Z,30.83
2023-01-25T03:38:46.783Z,32.30
2023-01-25T03:41:15.043Z,31.40
2023-01-25T03:43:43.614Z,34.40
2023-01-25T03:46:12.897Z,32.47
2023-01-25T03:48:41.292Z,22.83
2023-01-25T03:51:09.804Z,24.30
2023-01-25T03:53:37.600Z,18.63
2023-01-25T03:56:12.088Z,17.97
2023-01-25T03:58:46.024Z,24.17
2023-01-25T04:01:15.442Z,21.93
2023-01-25T04:03:43.351Z,24.23
2023-01-25T04:06:11.802Z,34.27
2023-01-25T04:08:40.151Z,33.03
2023-01-25T04:11:09.083Z,33.57
2023-01-25T04:13:37.452Z,28.43
2023-01-25T04:16:09.104Z,28.07
2023-01-25T04:18:56.508Z,24.47
2023-01-25T04:21:24.800Z,26.27
2023-01-25T04:23:53.102Z,25.13
2023-01-25T04:26:21.048Z,27.30
2023-01-25T04:28:55.114Z,30.53
2023-01-25T04:31:23.306Z,22.87
2023-01-25T04:33:51.480Z,23.23
2023-01-25T04:36:22.556Z,26.37
2023-01-25T04:38:50.410Z,32.57
2023-01-25T04:41:18.151Z,21.20
2023-01-25T04:43:46.638Z,24.50
2023-01-25T04:46:15.974Z,25.53
2023-01-25T04:48:43.697Z,27.03
2023-01-25T04:51:11.435Z,31.70
2023-01-25T04:53:40.677Z,23.73
2023-01-25T04:56:08.626Z,23.20
2023-01-25T04:58:45.360Z,26.10
2023-01-25T05:01:13.250Z,26.63
2023-01-25T05:03:41.119Z,28.30
2023-01-25T05:06:19.055Z,19.00
2023-01-25T05:08:48.178Z,27.70
2023-01-25T05:11:16.152Z,21.87
2023-01-25T05:14:22.506Z,22.13
2023-01-25T05:16:52.548Z,23.20
2023-01-25T05:19:20.214Z,29.07
2023-01-25T05:21:59.625Z,22.60
2023-01-25T05:24:43.252Z,19.00
2023-01-25T05:27:12.011Z,22.50
2023-01-25T05:30:00.061Z,27.03
2023-01-25T05:32:38.813Z,23.90
2023-01-25T05:35:07.623Z,23.80
2023-01-25T05:37:35.609Z,19.70
2023-01-25T05:40:09.773Z,24.40
2023-01-25T05:42:39.532Z,19.97
2023-01-25T05:45:14.432Z,22.67
2023-01-25T05:47:44.018Z,25.53
2023-01-25T05:50:12.039Z,29.27
2023-01-25T05:52:53.810Z,20.80
2023-01-25T05:55:22.931Z,18.67
2023-01-25T05:57:56.089Z,23.63
2023-01-25T06:00:24.305Z,15.17
2023-01-25T06:02:52.024Z,15.27
2023-01-25T06:05:23.967Z,15.47
2023-01-25T06:07:51.690Z,17.43
2023-01-25T06:10:21.050Z,23.60
2023-01-25T06:12:52.489Z,20.97
2023-01-25T06:15:20.223Z,15.00
2023-01-25T06:17:47.907Z,23.77
2023-01-25T06:20:45.064Z,18.30
2023-01-25T06:23:12.717Z,18.63
2023-01-25T06:25:40.399Z,21.37
2023-01-25T06:28:09.736Z,20.50
2023-01-25T06:30:37.539Z,19.63
2023-01-25T06:33:05.440Z,17.90
2023-01-25T06:35:33.388Z,16.70
2023-01-25T06:38:01.704Z,19.60
2023-01-25T06:40:29.940Z,22.43
2023-01-25T06:43:06.638Z,19.40
2023-01-25T06:45:35.691Z,22.00
2023-01-25T06:48:03.311Z,18.73
2023-01-25T06:50:31.235Z,20.40
2023-01-25T06:52:58.853Z,21.00
2023-01-25T06:55:26.803Z,20.93
2023-01-25T06:57:54.766Z,20.00
2023-01-25T07:00:23.139Z,27.07
2023-01-25T07:02:52.422Z,25.53
2023-01-25T07:05:20.419Z,25.70
2023-01-25T07:07:48.228Z,25.53
2023-01-25T07:10:16.429Z,23.50
2023-01-25T07:12:44.235Z,23.47
2023-01-25T07:15:12.259Z,25.73
2023-01-25T07:17:40.265Z,24.97
2023-01-25T07:20:10.432Z,26.80
2023-01-25T07:22:38.258Z,26.10
2023-01-25T07:25:06.711Z,30.80
2023-01-25T07:27:36.059Z,28.13
2023-01-25T07:30:03.960Z,29.13
2023-01-25T07:32:32.095Z,32.03
2023-01-25T07:34:59.926Z,31.20
2023-01-25T07:37:29.535Z,29.90
2023-01-25T07:39:58.201Z,34.23
2023-01-25T07:42:26.264Z,35.73
2023-01-25T07:45:12.171Z,37.00
2023-01-25T07:47:40.183Z,38.90
2023-01-25T07:50:09.344Z,39.13
2023-01-25T07:52:38.878Z,44.33
2023-01-25T07:55:07.587Z,33.90
2023-01-25T07:57:35.484Z,42.90
2023-01-25T08:00:03.885Z,36.67
2023-01-25T08:02:40.174Z,41.40
2023-01-25T08:05:08.919Z,36.60
2023-01-25T08:07:38.076Z,43.77
2023-01-25T08:10:06.955Z,40.83
2023-01-25T08:12:34.754Z,41.17
2023-01-25T08:15:02.701Z,41.63
2023-01-25T08:17:33.404Z,42.20
2023-01-25T08:20:01.746Z,36.43
2023-01-25T08:22:29.463Z,45.63
2023-01-25T08:25:01.066Z,38.67
2023-01-25T08:27:29.118Z,37.73
2023-01-25T08:29:56.767Z,43.23
2023-01-25T08:32:25.682Z,39.67
2023-01-25T08:34:53.398Z,37.43
2023-01-25T08:37:21.553Z,36.63
2023-01-25T08:39:49.271Z,35.13
2023-01-25T08:42:18.393Z,38.13
2023-01-25T08:44:46.584Z,43.80
2023-01-25T08:47:14.542Z,34.60
2023-01-25T08:49:42.212Z,33.20
2023-01-25T08:52:09.866Z,34.70
2023-01-25T08:54:39.238Z,30.23
2023-01-25T08:57:07.003Z,30.20
2023-01-25T08:59:36.051Z,29.57
2023-01-25T09:02:04.161Z,32.70
2023-01-25T09:04:32.123Z,31.43
2023-01-25T09:07:00.026Z,30.90
2023-01-25T09:09:27.713Z,28.83
2023-01-25T09:11:55.421Z,32.73
2023-01-25T09:14:23.094Z,28.83
2023-01-25T09:16:52.512Z,34.03
2023-01-25T09:19:20.185Z,34.47
2023-01-25T09:21:48.437Z,28.57
2023-01-25T09:24:16.176Z,32.63
2023-01-25T09:26:50.044Z,32.20
2023-01-25T09:29:23.625Z,33.47
2023-01-25T09:31:52.826Z,35.20
2023-01-25T09:34:30.223Z,31.80
2023-01-25T09:36:58.038Z,33.90
2023-01-25T09:39:25.745Z,29.60
2023-01-25T09:42:20.494Z,30.80
2023-01-25T09:44:55.903Z,28.77
2023-01-25T09:47:28.792Z,26.00
2023-01-25T09:50:06.577Z,31.33
2023-01-25T09:52:46.337Z,26.93
2023-01-25T09:55:15.487Z,27.83
2023-01-25T09:57:45.348Z,28.23
2023-01-25T10:00:16.466Z,26.80
2023-01-25T10:02:48.769Z,30.50
2023-01-25T10:05:18.815Z,30.80
2023-01-25T10:07:51.651Z,32.90
2023-01-25T10:10:22.502Z,34.43
2023-01-25T10:12:50.280Z,29.03
2023-01-25T10:15:21.889Z,31.93
2023-01-25T10:17:51.163Z,30.53
2023-01-25T10:20:24.729Z,33.53
2023-01-25T10:22:55.901Z,31.40
2023-01-25T10:25:26.238Z,31.17
2023-01-25T10:28:04.960Z,34.30
2023-01-25T10:30:35.846Z,36.67
2023-01-25T10:33:08.523Z,31.93
2023-01-25T10:35:43.745Z,36.03
2023-01-25T10:38:16.782Z,50.80
2023-01-25T10:40:47.258Z,38.37
2023-01-25T10:43:17.614Z,39.07
2023-01-25T10:45:45.425Z,34.43
2023-01-25T10:48:16.001Z,36.23
2023-01-25T10:50:47.015Z,35.57
2023-01-25T10:53:33.472Z,40.70
2023-01-25T10:56:12.622Z,35.87
2023-01-25T10:58:41.190Z,37.90
2023-01-25T11:01:10.070Z,32.27
2023-01-25T11:03:39.031Z,33.80
2023-01-25T11:06:08.509Z,32.87
2023-01-25T11:08:37.530Z,35.23
2023-01-25T11:11:15.225Z,32.40
2023-01-25T11:13:42.998Z,32.87
2023-01-25T11:16:21.549Z,32.70
2023-01-25T11:18:53.407Z,40.43
2023-01-25T11:21:25.676Z,35.53
2023-01-25T11:24:00.857Z,39.03
2023-01-25T11:26:29.238Z,35.67
2023-01-25T11:29:08.327Z,38.40
2023-01-25T11:31:36.796Z,38.27
2023-01-25T11:34:10.087Z,39.13
2023-01-25T11:36:43.587Z,44.20
2023-01-25T11:39:17.935Z,40.73
2023-01-25T11:41:59.580Z,42.30
2023-01-25T11:44:43.506Z,43.60
2023-01-25T11:47:16.125Z,47.87
2023-01-25T11:49:46.971Z,44.80
2023-01-25T11:52:22.655Z,50.33
2023-01-25T11:54:53.592Z,49.90
2023-01-25T11:57:29.953Z,46.43
2023-01-25T12:00:03.563Z,52.50
2023-01-25T12:02:48.380Z,43.70
2023-01-25T12:05:26.735Z,39.33
2023-01-25T12:08:01.183Z,49.30
2023-01-25T12:10:34.574Z,43.57
2023-01-25T12:13:07.057Z,45.53
2023-01-25T12:15:46.458Z,42.00
2023-01-25T12:18:23.595Z,42.97
2023-01-25T12:21:01.375Z,43.07
2023-01-25T12:23:36.227Z,46.43
2023-01-25T12:26:09.791Z,45.50
2023-01-25T12:28:40.858Z,40.10
2023-01-25T12:31:10.569Z,43.87
2023-01-25T12:33:42.303Z,47.10
2023-01-25T12:36:13.504Z,45.00
2023-01-25T12:38:47.004Z,48.77
2023-01-25T12:41:20.099Z,40.83
2023-01-25T12:43:50.127Z,46.00
2023-01-25T12:46:22.707Z,48.40
2023-01-25T12:48:53.298Z,42.67
2023-01-25T12:51:22.830Z,50.37
2023-01-25T12:53:53.085Z,43.83
2023-01-25T12:56:28.968Z,43.40
2023-01-25T12:59:02.164Z,39.50
2023-01-25T13:01:33.513Z,45.20
2023-01-25T13:04:05.612Z,43.07
2023-01-25T13:06:38.112Z,42.50
2023-01-25T13:09:12.731Z,41.20
2023-01-25T13:11:41.714Z,45.33
2023-01-25T13:14:28.908Z,43.17
2023-01-25T13:17:09.897Z,44.77
2023-01-25T13:19:42.910Z,45.60
2023-01-25T13:22:11.344Z,45.67
2023-01-25T13:24:57.764Z,46.90
2023-01-25T13:27:27.931Z,45.33
2023-01-25T13:30:01.544Z,46.10
2023-01-25T13:32:48.088Z,52.60
2023-01-25T13:35:26.684Z,49.67
2023-01-25T13:37:59.894Z,48.40
2023-01-25T13:40:32.984Z,51.43
2023-01-25T13:43:03.788Z,53.50
2023-01-25T13:45:32.820Z,55.77
2023-01-25T13:48:02.089Z,55.40
2023-01-25T13:50:31.611Z,45.93
2023-01-25T13:53:00.595Z,46.50
2023-01-25T13:55:28.970Z,47.60
2023-01-25T13:58:10.960Z,49.87
2023-01-25T14:00:38.655Z,51.70
2023-01-25T14:03:07.111Z,51.30
2023-01-25T14:05:35.067Z,48.17
2023-01-25T14:08:02.910Z,51.03
2023-01-25T14:10:31.230Z,46.43
2023-01-25T14:13:00.520Z,46.90
2023-01-25T14:15:30.570Z,53.20
2023-01-25T14:18:05.334Z,54.00
2023-01-25T14:20:33.230Z,50.83
2023-01-25T14:23:00.894Z,50.77
2023-01-25T14:25:28.508Z,45.93
2023-01-25T14:27:57.461Z,47.10
2023-01-25T14:30:26.820Z,50.53
2023-01-25T14:32:57.973Z,48.33
2023-01-25T14:35:53.690Z,39.63
2023-01-25T14:38:28.440Z,45.53
2023-01-25T14:40:57.945Z,46.80
2023-01-25T14:43:26.465Z,51.33
2023-01-25T14:45:54.191Z,46.43
2023-01-25T14:48:52.621Z,56.47
2023-01-25T14:51:27.293Z,48.03
2023-01-25T14:54:00.735Z,38.77
2023-01-25T14:56:34.035Z,54.07
2023-01-25T14:59:01.861Z,46.93
2023-01-25T15:01:31.619Z,43.77
2023-01-25T15:03:59.733Z,44.23
2023-01-25T15:06:28.870Z,46.30
2023-01-25T15:08:56.668Z,45.87
2023-01-25T15:11:46.427Z,49.70
2023-01-25T15:14:16.374Z,44.60
2023-01-25T15:16:44.157Z,43.10
2023-01-25T15:19:25.154Z,40.47
2023-01-25T15:21:54.977Z,47.10
2023-01-25T15:24:23.627Z,39.87
2023-01-25T15:26:52.636Z,42.47
2023-01-25T15:29:21.874Z,48.67
2023-01-25T15:31:50.491Z,45.13
2023-01-25T15:34:19.648Z,53.80
2023-01-25T15:36:48.468Z,53.90
2023-01-25T15:39:18.427Z,44.30
2023-01-25T15:41:46.575Z,52.57
2023-01-25T15:44:14.929Z,43.10
2023-01-25T15:46:43.972Z,39.43
2023-01-25T15:49:14.856Z,49.97
2023-01-25T15:51:42.561Z,46.37
2023-01-25T15:54:10.237Z,44.60
2023-01-25T15:56:41.581Z,40.70
2023-01-25T15:59:10.150Z,35.93
2023-01-25T16:01:37.853Z,42.60
2023-01-25T16:04:05.920Z,38.60
2023-01-25T16:06:36.636Z,42.30
2023-01-25T16:09:13.324Z,39.90
2023-01-25T16:11:42.415Z,40.70
2023-01-25T16:14:10.478Z,39.77
2023-01-25T16:16:40.182Z,43.43
2023-01-25T16:19:08.140Z,37.80
2023-01-25T16:21:35.898Z,40.50
2023-01-25T16:24:05.835Z,44.20
2023-01-25T16:26:34.467Z,40.03
2023-01-25T16:29:03.820Z,45.50
2023-01-25T16:31:33.503Z,42.97
2023-01-25T16:34:02.596Z,37.80
2023-01-25T16:36:31.742Z,42.00
2023-01-25T16:39:06.802Z,50.17
2023-01-25T16:41:35.102Z,50.97
2023-01-25T16:44:04.236Z,41.80
2023-01-25T16:46:32.208Z,48.27
2023-01-25T16:49:00.328Z,43.60
2023-01-25T16:51:29.158Z,44.37
2023-01-25T16:53:58.212Z,43.87
2023-01-25T16:56:27.072Z,48.73
2023-01-25T16:58:55.831Z,44.13
2023-01-25T17:01:26.216Z,45.53
2023-01-25T17:03:55.372Z,54.37
2023-01-25T17:06:23.928Z,44.17
2023-01-25T17:08:51.646Z,46.87
2023-01-25T17:11:20.027Z,45.20
2023-01-25T17:13:51.477Z,41.43
2023-01-25T17:16:19.959Z,47.07
2023-01-25T17:18:49.932Z,42.23
2023-01-25T17:21:19.550Z,45.67
2023-01-25T17:23:47.334Z,42.33
2023-01-25T17:26:16.072Z,47.27
2023-01-25T17:28:44.131Z,40.00
2023-01-25T17:31:17.073Z,45.00
2023-01-25T17:33:45.331Z,55.20
2023-01-25T17:36:15.277Z,44.00
2023-01-25T17:38:43.540Z,47.37
2023-01-25T17:41:12.440Z,49.70
2023-01-25T17:43:40.253Z,41.40
2023-01-25T17:46:11.618Z,43.27
2023-01-25T17:48:39.959Z,49.80
2023-01-25T17:51:07.922Z,48.67
2023-01-25T17:53:37.261Z,40.40
2023-01-25T17:56:05.811Z,38.27
2023-01-25T17:58:36.685Z,40.67
2023-01-25T18:01:13.919Z,43.93
2023-01-25T18:03:42.713Z,43.60
2023-01-25T18:06:11.081Z,38.37
2023-01-25T18:08:41.277Z,37.23
2023-01-25T18:11:10.821Z,38.17
2023-01-25T18:13:41.875Z,43.53
2023-01-25T18:16:10.400Z,40.43
2023-01-25T18:18:38.255Z,37.17
2023-01-25T18:21:07.648Z,42.80
2023-01-25T18:23:35.304Z,35.77
2023-01-25T18:26:06.707Z,46.37
2023-01-25T18:28:34.592Z,41.47
2023-01-25T18:31:05.550Z,47.40
2023-01-25T18:33:33.537Z,44.63
2023-01-25T18:36:03.918Z,41.50
2023-01-25T18:38:32.982Z,43.43
2023-01-25T18:41:01.016Z,41.80
2023-01-25T18:43:30.664Z,43.80
2023-01-25T18:46:01.325Z,41.50
2023-01-25T18:48:31.285Z,41.33
2023-01-25T18:50:59.848Z,42.97
2023-01-25T18:53:28.748Z,48.70
2023-01-25T18:56:01.068Z,46.63
2023-01-25T18:58:31.599Z,39.57
2023-01-25T19:01:04.043Z,46.00
2023-01-25T19:03:32.117Z,47.93
2023-01-25T19:06:00.252Z,41.43
2023-01-25T19:08:29.201Z,43.13
2023-01-25T19:11:00.765Z,41.13
2023-01-25T19:13:30.673Z,43.73
2023-01-25T19:16:02.428Z,45.20
2023-01-25T19:18:31.547Z,47.07
2023-01-25T19:21:00.037Z,39.93
2023-01-25T19:23:28.146Z,45.90
2023-01-25T19:25:56.016Z,48.60
2023-01-25T19:28:24.339Z,44.97
2023-01-25T19:30:52.110Z,39.33
2023-01-25T19:33:21.304Z,49.67
2023-01-25T19:35:49.298Z,44.90
2023-01-25T19:38:16.931Z,44.10
2023-01-25T19:40:44.631Z,47.07
2023-01-25T19:43:12.226Z,43.27
2023-01-25T19:45:40.188Z,38.43
2023-01-25T19:48:07.970Z,45.37
2023-01-25T19:50:37.262Z,43.67
2023-01-25T19:53:07.053Z,41.03
2023-01-25T19:55:34.672Z,44.10
2023-01-25T19:58:02.576Z,39.60
2023-01-25T20:00:30.444Z,39.07
2023-01-25T20:03:10.692Z,49.23
2023-01-25T20:05:44.639Z,40.10
2023-01-25T20:08:12.345Z,36.47
2023-01-25T20:10:40.323Z,35.80
2023-01-25T20:13:08.080Z,37.87
2023-01-25T20:15:35.991Z,45.80
2023-01-25T20:18:03.761Z,36.30
2023-01-25T20:20:31.988Z,32.90
2023-01-25T20:23:00.984Z,39.93
2023-01-25T20:25:28.997Z,37.70
2023-01-25T20:27:57.036Z,38.93
2023-01-25T20:30:24.680Z,39.73
2023-01-25T20:32:52.486Z,42.27
2023-01-25T20:35:20.708Z,36.00
2023-01-25T20:37:49.407Z,41.03
2023-01-25T20:40:18.854Z,33.30
2023-01-25T20:42:46.544Z,42.57
2023-01-25T20:45:16.951Z,40.23
2023-01-25T20:47:44.721Z,38.60
2023-01-25T20:50:12.744Z,35.40
2023-01-25T20:52:40.417Z,41.73
2023-01-25T20:55:09.528Z,47.50
2023-01-25T20:57:39.164Z,47.83
2023-01-25T21:00:09.398Z,44.67
2023-01-25T21:02:38.747Z,37.33
2023-01-25T21:05:06.789Z,40.80
2023-01-25T21:07:34.887Z,47.73
2023-01-25T21:10:02.647Z,35.07
2023-01-25T21:12:31.345Z,38.37
2023-01-25T21:15:00.374Z,40.87
2023-01-25T21:17:28.536Z,37.20
2023-01-25T21:19:59.281Z,32.53
2023-01-25T21:22:29.026Z,28.33
2023-01-25T21:24:56.805Z,26.77
2023-01-25T21:27:24.962Z,33.90
2023-01-25T21:29:52.961Z,32.93
2023-01-25T21:32:23.303Z,32.63
2023-01-25T21:34:51.040Z,50.00
2023-01-25T21:37:19.218Z,45.47
2023-01-25T21:39:46.918Z,42.83
2023-01-25T21:42:14.599Z,39.97
2023-01-25T21:45:00.172Z,45.47
2023-01-25T21:47:32.386Z,47.43
2023-01-25T21:50:17.888Z,50.37
2023-01-25T21:52:45.691Z,52.07
2023-01-25T21:55:13.411Z,48.77
2023-01-25T21:57:46.997Z,51.53
2023-01-25T22:00:16.367Z,50.47
2023-01-25T22:02:46.001Z,42.00
2023-01-25T22:05:13.942Z,40.20
2023-01-25T22:07:41.807Z,44.93
2023-01-25T22:10:10.318Z,42.03
2023-01-25T22:12:38.604Z,40.67
2023-01-25T22:15:07.006Z,41.93
2023-01-25T22:17:34.733Z,47.20
2023-01-25T22:20:04.205Z,50.23
2023-01-25T22:22:31.832Z,52.97
2023-01-25T22:24:59.661Z,43.70
2023-01-25T22:27:38.746Z,54.77
2023-01-25T22:30:06.986Z,56.90
2023-01-25T22:32:34.633Z,50.10
2023-01-25T22:35:04.091Z,40.00
2023-01-25T22:37:31.744Z,36.70
2023-01-25T22:39:59.419Z,45.67
2023-01-25T22:42:27.131Z,39.93
2023-01-25T22:44:54.843Z,44.50
2023-01-25T22:47:22.593Z,36.63
2023-01-25T22:49:50.478Z,36.53
2023-01-25T22:52:19.757Z,43.40
2023-01-25T22:54:50.312Z,37.70
2023-01-25T22:57:18.288Z,38.87
2023-01-25T22:59:45.941Z,37.00
2023-01-25T23:02:13.723Z,31.73
2023-01-25T23:04:41.383Z,34.30
2023-01-25T23:07:19.159Z,36.13
2023-01-25T23:09:51.327Z,28.67
2023-01-25T23:12:19.891Z,32.50
2023-01-25T23:14:54.174Z,30.53
2023-01-25T23:17:40.284Z,35.93
2023-01-25T23:20:09.093Z,33.80
2023-01-25T23:22:37.346Z,43.27
2023-01-25T23:25:08.473Z,39.53
2023-01-25T23:27:36.095Z,34.90
2023-01-25T23:30:04.785Z,40.20
2023-01-25T23:32:33.116Z,41.97
2023-01-25T23:35:00.804Z,37.73
2023-01-25T23:37:50.972Z,44.57
2023-01-25T23:40:20.247Z,51.60
2023-01-25T23:42:48.069Z,41.13
2023-01-25T23:45:16.071Z,44.20
2023-01-25T23:47:43.778Z,46.47
2023-01-25T23:50:12.400Z,38.43
2023-01-25T23:52:40.672Z,40.70
2023-01-25T23:55:08.952Z,38.43
2023-01-25T23:57:38.294Z,38.50
